createdAt,value
2022-07-31T00:00:51.581Z,101801.22
2022-07-31T00:03:56.962Z,101806.75
2022-07-31T00:07:02.937Z,101796.19
2022-07-31T00:10:11.271Z,101800.19
2022-07-31T00:13:18.220Z,101804.34
2022-07-31T00:16:43.677Z,101800.66
2022-07-31T00:19:48.897Z,101805.56
2022-07-31T00:22:55.228Z,101801.94
2022-07-31T00:26:01.673Z,101804.59
2022-07-31T00:29:07.740Z,101797.09
2022-07-31T00:32:14.209Z,101799.06
2022-07-31T00:35:19.470Z,101798.16
2022-07-31T00:38:26.905Z,101801.66
2022-07-31T00:41:42.472Z,101798.63
2022-07-31T00:44:49.232Z,101805.81
2022-07-31T00:47:55.770Z,101808.19
2022-07-31T00:51:01.253Z,101806.50
2022-07-31T00:54:07.094Z,101811.97
2022-07-31T00:57:16.318Z,101810.28
2022-07-31T01:00:23.447Z,101808.84
2022-07-31T01:03:28.750Z,101816.53
2022-07-31T01:06:33.984Z,101818.41
2022-07-31T01:09:41.081Z,101831.50
2022-07-31T01:12:54.526Z,101818.41
2022-07-31T01:16:00.409Z,101813.19
2022-07-31T01:19:19.821Z,101824.91
2022-07-31T01:22:45.693Z,101811.13
2022-07-31T01:26:03.866Z,101804.31
2022-07-31T01:29:27.154Z,101803.53
2022-07-31T01:32:38.494Z,101806.13
2022-07-31T01:35:50.563Z,101810.66
2022-07-31T01:38:57.894Z,101802.22
2022-07-31T01:42:06.846Z,101800.91
2022-07-31T01:45:15.335Z,101801.75
2022-07-31T01:48:20.804Z,101800.97
2022-07-31T01:51:27.947Z,101803.53
2022-07-31T01:54:34.061Z,101804.59
2022-07-31T01:57:43.221Z,101790.91
2022-07-31T02:00:52.178Z,101805.75
2022-07-31T02:04:00.566Z,101798.31
2022-07-31T02:07:09.250Z,101801.97
2022-07-31T02:10:17.153Z,101814.22
2022-07-31T02:13:24.607Z,101810.63
2022-07-31T02:16:31.657Z,101811.44
2022-07-31T02:20:00.210Z,101809.31
2022-07-31T02:23:07.580Z,101816.53
2022-07-31T02:26:13.637Z,101806.97
2022-07-31T02:29:20.387Z,101809.88
2022-07-31T02:32:28.901Z,101800.38
2022-07-31T02:35:34.515Z,101801.47
2022-07-31T02:38:42.053Z,101797.78
2022-07-31T02:41:48.239Z,101802.44
2022-07-31T02:44:53.946Z,101803.56
2022-07-31T02:48:00.580Z,101798.34
2022-07-31T02:51:06.392Z,101797.56
2022-07-31T02:54:13.565Z,101797.88
2022-07-31T02:57:18.818Z,101792.81
2022-07-31T03:00:27.199Z,101781.66
2022-07-31T03:03:35.272Z,101784.25
2022-07-31T03:06:41.120Z,101779.25
2022-07-31T03:09:47.604Z,101779.78
2022-07-31T03:13:18.892Z,101777.38
2022-07-31T03:16:24.153Z,101768.13
2022-07-31T03:19:31.196Z,101774.03
2022-07-31T03:22:36.653Z,101775.75
2022-07-31T03:25:43.291Z,101770.47
2022-07-31T03:28:48.817Z,101770.22
2022-07-31T03:31:54.800Z,101777.91
2022-07-31T03:35:01.289Z,101782.38
2022-07-31T03:38:40.492Z,101780.25
2022-07-31T03:41:33.593Z,101780.63
2022-07-31T03:44:41.544Z,101780.50
2022-07-31T03:47:46.801Z,101775.03
2022-07-31T03:50:53.461Z,101766.50
2022-07-31T03:53:58.653Z,101767.63
2022-07-31T03:57:27.002Z,101774.47
2022-07-31T04:00:34.854Z,101774.25
2022-07-31T04:03:42.804Z,101769.88
2022-07-31T04:07:08.185Z,101771.56
2022-07-31T04:10:13.777Z,101766.66
2022-07-31T04:13:19.192Z,101768.06
2022-07-31T04:16:24.471Z,101771.38
2022-07-31T04:19:31.110Z,101766.94
2022-07-31T04:22:38.203Z,101755.72
2022-07-31T04:25:50.350Z,101752.06
2022-07-31T04:29:07.728Z,101761.38
2022-07-31T04:32:14.513Z,101751.88
2022-07-31T04:35:26.308Z,101755.03
2022-07-31T04:38:32.910Z,101751.59
2022-07-31T04:41:38.141Z,101757.38
2022-07-31T04:44:45.236Z,101756.41
2022-07-31T04:47:50.885Z,101751.22
2022-07-31T04:50:56.057Z,101760.53
2022-07-31T04:54:02.601Z,101754.59
2022-07-31T04:57:08.057Z,101760.59
2022-07-31T05:00:14.936Z,101762.88
2022-07-31T05:03:20.246Z,101758.50
2022-07-31T05:06:35.463Z,101762.50
2022-07-31T05:09:42.640Z,101761.56
2022-07-31T05:12:48.964Z,101750.03
2022-07-31T05:15:54.970Z,101762.75
2022-07-31T05:19:01.799Z,101758.16
2022-07-31T05:22:25.531Z,101754.59
2022-07-31T05:26:05.304Z,101756.91
2022-07-31T05:29:10.443Z,101757.81
2022-07-31T05:32:16.147Z,101760.94
2022-07-31T05:35:22.207Z,101757.16
2022-07-31T05:38:28.186Z,101762.06
2022-07-31T05:42:03.799Z,101758.44
2022-07-31T05:45:41.344Z,101764.94
2022-07-31T05:48:47.494Z,101756.75
2022-07-31T05:51:54.556Z,101755.16
2022-07-31T05:54:59.935Z,101753.00
2022-07-31T05:58:24.884Z,101752.84
2022-07-31T06:01:30.968Z,101742.75
2022-07-31T06:04:36.131Z,101751.75
2022-07-31T06:07:41.647Z,101749.22
2022-07-31T06:10:56.783Z,101745.09
2022-07-31T06:14:03.557Z,101747.06
2022-07-31T06:17:40.595Z,101744.50
2022-07-31T06:20:59.969Z,101740.50
2022-07-31T06:24:06.421Z,101728.13
2022-07-31T06:27:33.306Z,101731.31
2022-07-31T06:30:41.113Z,101734.47
2022-07-31T06:33:48.238Z,101735.31
2022-07-31T06:36:55.620Z,101736.34
2022-07-31T06:40:01.405Z,101729.38
2022-07-31T06:43:35.734Z,101712.97
2022-07-31T06:47:23.530Z,101717.38
2022-07-31T06:50:28.989Z,101711.19
2022-07-31T06:54:10.053Z,101713.47
2022-07-31T06:57:16.373Z,101710.59
2022-07-31T07:00:22.528Z,101707.81
2022-07-31T07:03:31.496Z,101723.63
2022-07-31T07:06:36.825Z,101710.41
2022-07-31T07:09:41.945Z,101708.91
2022-07-31T07:12:54.392Z,101712.91
2022-07-31T07:16:00.254Z,101711.06
2022-07-31T07:19:07.329Z,101702.00
2022-07-31T07:22:13.524Z,101701.63
2022-07-31T07:25:20.564Z,101693.03
2022-07-31T07:28:30.713Z,101697.03
2022-07-31T07:31:39.261Z,101690.78
2022-07-31T07:34:46.315Z,101689.16
2022-07-31T07:38:09.357Z,101695.75
2022-07-31T07:41:15.425Z,101680.25
2022-07-31T07:44:23.905Z,101678.72
2022-07-31T07:48:02.819Z,101671.16
2022-07-31T07:50:57.827Z,101678.44
2022-07-31T07:54:08.776Z,101667.31
2022-07-31T07:57:52.185Z,101667.81
2022-07-31T08:01:20.868Z,101665.41
2022-07-31T08:04:31.694Z,101668.16
2022-07-31T08:07:41.810Z,101667.03
2022-07-31T08:11:06.608Z,101662.00
2022-07-31T08:14:35.627Z,101664.91
2022-07-31T08:18:03.669Z,101657.91
2022-07-31T08:21:09.277Z,101661.66
2022-07-31T08:24:16.868Z,101658.47
2022-07-31T08:27:40.516Z,101662.00
2022-07-31T08:30:47.682Z,101655.22
2022-07-31T08:33:57.079Z,101658.66
2022-07-31T08:37:52.553Z,101656.97
2022-07-31T08:40:31.434Z,101655.72
2022-07-31T08:44:02.930Z,101658.31
2022-07-31T08:47:13.195Z,101667.63
2022-07-31T08:50:18.838Z,101663.44
2022-07-31T08:53:25.223Z,101663.63
2022-07-31T08:56:46.446Z,101653.63
2022-07-31T08:59:54.745Z,101650.28
2022-07-31T09:03:01.334Z,101655.09
2022-07-31T09:06:15.986Z,101653.34
2022-07-31T09:09:21.186Z,101655.50
2022-07-31T09:12:34.805Z,101651.84
2022-07-31T09:15:45.259Z,101646.75
2022-07-31T09:18:58.680Z,101650.81
2022-07-31T09:22:08.441Z,101647.69
2022-07-31T09:25:19.228Z,101649.78
2022-07-31T09:28:35.779Z,101640.41
2022-07-31T09:31:41.434Z,101645.81
2022-07-31T09:34:55.507Z,101647.19
2022-07-31T09:38:00.891Z,101647.28
2022-07-31T09:41:58.133Z,101640.28
2022-07-31T09:45:19.154Z,101642.16
2022-07-31T09:48:26.569Z,101640.78
2022-07-31T09:51:40.831Z,101645.06
2022-07-31T09:54:47.864Z,101638.00
2022-07-31T09:58:06.665Z,101638.00
2022-07-31T10:01:18.352Z,101634.97
2022-07-31T10:04:24.572Z,101633.50
2022-07-31T10:07:35.789Z,101638.22
2022-07-31T10:11:04.516Z,101635.28
2022-07-31T10:14:23.682Z,101634.66
2022-07-31T10:17:35.927Z,101629.09
2022-07-31T10:20:44.192Z,101630.69
2022-07-31T10:24:27.393Z,101633.53
2022-07-31T10:27:39.343Z,101629.44
2022-07-31T10:30:49.053Z,101628.41
2022-07-31T10:33:55.981Z,101631.31
2022-07-31T10:37:24.153Z,101640.50
2022-07-31T10:40:53.148Z,101628.34
2022-07-31T10:44:02.163Z,101624.69
2022-07-31T10:47:40.083Z,101625.31
2022-07-31T10:51:09.683Z,101621.75
2022-07-31T10:54:41.624Z,101624.16
2022-07-31T10:58:12.666Z,101629.44
2022-07-31T11:01:29.562Z,101624.53
2022-07-31T11:05:13.300Z,101615.00
2022-07-31T11:08:51.593Z,101610.09
2022-07-31T11:12:22.273Z,101611.03
2022-07-31T11:15:53.736Z,101622.22
2022-07-31T11:19:18.020Z,101607.16
2022-07-31T11:22:32.019Z,101616.69
2022-07-31T11:25:40.206Z,101621.59
2022-07-31T11:28:45.800Z,101613.53
2022-07-31T11:31:51.240Z,101612.94
2022-07-31T11:34:58.360Z,101618.78
2022-07-31T11:38:03.565Z,101608.25
2022-07-31T11:41:14.275Z,101617.25
2022-07-31T11:44:22.677Z,101610.25
2022-07-31T11:48:12.040Z,101605.72
2022-07-31T11:51:03.738Z,101603.91
2022-07-31T11:54:09.014Z,101611.44
2022-07-31T11:57:15.848Z,101602.75
2022-07-31T12:00:26.281Z,101594.22
2022-07-31T12:03:37.323Z,101601.03
2022-07-31T12:06:42.568Z,101590.25
2022-07-31T12:10:01.123Z,101586.25
2022-07-31T12:13:16.175Z,101586.63
2022-07-31T12:16:21.488Z,101591.13
2022-07-31T12:19:31.476Z,101593.84
2022-07-31T12:22:43.086Z,101587.94
2022-07-31T12:25:48.463Z,101586.78
2022-07-31T12:29:02.640Z,101586.19
2022-07-31T12:32:09.164Z,101580.09
2022-07-31T12:35:14.724Z,101583.31
2022-07-31T12:38:40.610Z,101586.28
2022-07-31T12:41:50.608Z,101587.97
2022-07-31T12:45:01.136Z,101567.63
2022-07-31T12:48:24.705Z,101567.13
2022-07-31T12:51:45.853Z,101561.31
2022-07-31T12:54:52.140Z,101561.78
2022-07-31T12:57:58.115Z,101558.34
2022-07-31T13:01:04.725Z,101562.06
2022-07-31T13:04:18.272Z,101566.00
2022-07-31T13:07:24.804Z,101556.34
2022-07-31T13:10:32.386Z,101560.28
2022-07-31T13:13:38.418Z,101547.03
2022-07-31T13:16:45.089Z,101546.34
2022-07-31T13:19:50.410Z,101547.03
2022-07-31T13:22:55.596Z,101554.28
2022-07-31T13:26:01.279Z,101541.78
2022-07-31T13:29:07.480Z,101538.75
2022-07-31T13:32:15.316Z,101547.00
2022-07-31T13:35:27.858Z,101535.13
2022-07-31T13:38:35.606Z,101542.66
2022-07-31T13:41:41.954Z,101538.22
2022-07-31T13:44:47.240Z,101534.06
2022-07-31T13:47:58.264Z,101539.94
2022-07-31T13:51:06.058Z,101539.53
2022-07-31T13:54:14.154Z,101537.56
2022-07-31T13:57:19.543Z,101526.50
2022-07-31T14:00:24.626Z,101524.22
2022-07-31T14:03:32.036Z,101521.03
2022-07-31T14:06:39.924Z,101523.75
2022-07-31T14:09:47.140Z,101518.53
2022-07-31T14:13:00.408Z,101520.41
2022-07-31T14:16:06.584Z,101517.84
2022-07-31T14:19:13.185Z,101515.06
2022-07-31T14:22:18.485Z,101512.53
2022-07-31T14:25:23.785Z,101519.25
2022-07-31T14:28:28.988Z,101511.84
2022-07-31T14:31:34.501Z,101515.03
2022-07-31T14:34:41.170Z,101518.09
2022-07-31T14:37:47.837Z,101510.03
2022-07-31T14:40:54.054Z,101516.13
2022-07-31T14:43:59.285Z,101514.84
2022-07-31T14:47:04.656Z,101508.53
2022-07-31T14:50:17.479Z,101515.41
2022-07-31T14:53:24.852Z,101505.31
2022-07-31T14:56:58.492Z,101505.91
2022-07-31T14:59:55.524Z,101509.28
2022-07-31T15:03:00.770Z,101511.47
2022-07-31T15:06:41.932Z,101497.69
2022-07-31T15:09:33.396Z,101502.03
2022-07-31T15:12:39.068Z,101495.41
2022-07-31T15:15:45.382Z,101496.56
2022-07-31T15:18:51.680Z,101490.97
2022-07-31T15:22:10.345Z,101495.94
2022-07-31T15:25:21.695Z,101493.09
2022-07-31T15:28:27.043Z,101489.41
2022-07-31T15:31:32.432Z,101496.56
2022-07-31T15:34:37.909Z,101493.72
2022-07-31T15:37:45.529Z,101493.47
2022-07-31T15:40:50.820Z,101502.84
2022-07-31T15:43:56.132Z,101504.94
2022-07-31T15:47:01.357Z,101500.09
2022-07-31T15:50:08.577Z,101504.19
2022-07-31T15:53:15.449Z,101507.66
2022-07-31T15:56:21.258Z,101500.00
2022-07-31T15:59:26.469Z,101501.09
2022-07-31T16:02:31.725Z,101503.56
2022-07-31T16:05:38.824Z,101497.25
2022-07-31T16:08:45.625Z,101500.44
2022-07-31T16:12:04.864Z,101499.22
2022-07-31T16:15:12.830Z,101494.09
2022-07-31T16:18:18.851Z,101494.53
2022-07-31T16:21:24.513Z,101501.09
2022-07-31T16:24:31.079Z,101486.88
2022-07-31T16:27:37.256Z,101482.94
2022-07-31T16:30:42.454Z,101486.94
2022-07-31T16:33:50.955Z,101483.63
2022-07-31T16:36:56.309Z,101486.38
2022-07-31T16:40:02.845Z,101487.16
2022-07-31T16:43:50.706Z,101480.94
2022-07-31T16:46:35.388Z,101483.28
2022-07-31T16:49:41.847Z,101478.84
2022-07-31T16:52:50.124Z,101478.31
2022-07-31T16:56:01.908Z,101489.63
2022-07-31T16:59:07.704Z,101489.63
2022-07-31T17:02:13.121Z,101487.75
2022-07-31T17:05:18.585Z,101492.75
2022-07-31T17:08:23.787Z,101496.34
2022-07-31T17:11:30.465Z,101485.38
2022-07-31T17:14:36.069Z,101483.69
2022-07-31T17:17:41.906Z,101481.56
2022-07-31T17:20:47.936Z,101481.88
2022-07-31T17:23:53.655Z,101479.59
2022-07-31T17:27:04.918Z,101482.50
2022-07-31T17:30:12.580Z,101484.72
2022-07-31T17:33:18.065Z,101491.75
2022-07-31T17:36:23.636Z,101487.47
2022-07-31T17:39:30.992Z,101481.88
2022-07-31T17:42:37.760Z,101483.44
2022-07-31T17:45:59.852Z,101484.66
2022-07-31T17:49:11.658Z,101486.34
2022-07-31T17:52:25.926Z,101480.56
2022-07-31T17:55:31.113Z,101483.13
2022-07-31T17:58:37.669Z,101480.03
2022-07-31T18:01:43.071Z,101485.84
2022-07-31T18:04:57.000Z,101497.69
2022-07-31T18:08:02.131Z,101497.09
2022-07-31T18:11:08.353Z,101493.09
2022-07-31T18:14:15.135Z,101493.13
2022-07-31T18:17:23.623Z,101499.81
2022-07-31T18:20:28.941Z,101495.47
2022-07-31T18:23:34.117Z,101502.81
2022-07-31T18:26:39.570Z,101499.91
2022-07-31T18:29:54.296Z,101504.47
2022-07-31T18:33:01.586Z,101502.16
2022-07-31T18:36:07.166Z,101506.91
2022-07-31T18:39:13.346Z,101515.19
2022-07-31T18:42:18.693Z,101510.25
2022-07-31T18:45:25.211Z,101516.91
2022-07-31T18:48:32.063Z,101518.97
2022-07-31T18:51:37.758Z,101515.44
2022-07-31T18:54:43.357Z,101505.78
2022-07-31T18:57:50.640Z,101522.44
2022-07-31T19:00:57.314Z,101509.84
2022-07-31T19:04:02.704Z,101519.72
2022-07-31T19:07:08.793Z,101514.06
2022-07-31T19:10:31.274Z,101513.13
2022-07-31T19:13:36.872Z,101518.31
2022-07-31T19:16:43.670Z,101520.50
2022-07-31T19:19:54.915Z,101512.13
2022-07-31T19:23:05.774Z,101508.69
2022-07-31T19:26:18.237Z,101514.28
2022-07-31T19:29:24.541Z,101515.19
2022-07-31T19:32:32.483Z,101509.03
2022-07-31T19:35:55.459Z,101517.00
2022-07-31T19:39:03.265Z,101518.91
2022-07-31T19:42:11.704Z,101517.41
2022-07-31T19:45:18.562Z,101514.81
2022-07-31T19:48:25.339Z,101513.06
2022-07-31T19:51:31.491Z,101511.00
2022-07-31T19:54:36.990Z,101509.16
2022-07-31T19:57:43.630Z,101510.38
2022-07-31T20:00:49.028Z,101506.53
2022-07-31T20:03:57.572Z,101504.38
2022-07-31T20:07:03.176Z,101504.28
2022-07-31T20:10:10.114Z,101496.66
2022-07-31T20:13:15.364Z,101500.94
2022-07-31T20:16:20.675Z,101501.03
2022-07-31T20:19:27.307Z,101503.53
2022-07-31T20:22:32.583Z,101501.34
2022-07-31T20:25:39.087Z,101506.38
2022-07-31T20:28:44.477Z,101512.00
2022-07-31T20:31:50.542Z,101502.84
2022-07-31T20:34:57.136Z,101518.59
2022-07-31T20:38:02.426Z,101512.16
2022-07-31T20:41:07.556Z,101507.97
2022-07-31T20:44:12.754Z,101493.63
2022-07-31T20:47:21.576Z,101503.69
2022-07-31T20:50:31.663Z,101494.41
2022-07-31T20:53:36.848Z,101492.56
2022-07-31T20:56:42.806Z,101494.66
2022-07-31T20:59:48.654Z,101500.25
2022-07-31T21:02:53.811Z,101491.22
2022-07-31T21:06:01.193Z,101488.72
2022-07-31T21:09:07.765Z,101483.53
2022-07-31T21:12:12.957Z,101481.94
2022-07-31T21:15:40.889Z,101477.72
2022-07-31T21:18:43.808Z,101475.81
2022-07-31T21:21:51.221Z,101478.63
2022-07-31T21:24:57.085Z,101475.19
2022-07-31T21:28:02.987Z,101473.25
2022-07-31T21:31:08.645Z,101477.53
2022-07-31T21:34:14.757Z,101477.19
2022-07-31T21:37:21.582Z,101475.94
2022-07-31T21:40:28.905Z,101478.97
2022-07-31T21:43:47.259Z,101475.16
2022-07-31T21:47:03.213Z,101472.88
2022-07-31T21:50:10.040Z,101473.34
2022-07-31T21:53:16.976Z,101470.13
2022-07-31T21:56:22.092Z,101466.22
2022-07-31T21:59:28.199Z,101475.81
2022-07-31T22:02:33.981Z,101471.56
2022-07-31T22:05:56.748Z,101459.06
2022-07-31T22:09:03.282Z,101460.88
2022-07-31T22:12:09.969Z,101460.09
2022-07-31T22:15:16.178Z,101464.09
2022-07-31T22:18:21.899Z,101459.41
2022-07-31T22:21:27.703Z,101459.47
2022-07-31T22:24:35.122Z,101463.13
2022-07-31T22:27:59.248Z,101462.22
2022-07-31T22:31:05.156Z,101463.13
2022-07-31T22:34:12.387Z,101465.19
2022-07-31T22:37:18.360Z,101467.78
2022-07-31T22:40:25.624Z,101461.19
2022-07-31T22:44:11.286Z,101459.34
2022-07-31T22:46:57.401Z,101462.25
2022-07-31T22:50:03.204Z,101465.97
2022-07-31T22:53:09.504Z,101458.19
2022-07-31T22:56:16.078Z,101453.78
2022-07-31T22:59:21.783Z,101457.63
2022-07-31T23:02:27.522Z,101454.50
2022-07-31T23:06:02.792Z,101451.09
2022-07-31T23:08:58.169Z,101459.00
2022-07-31T23:12:06.145Z,101447.75
2022-07-31T23:15:14.214Z,101451.03
2022-07-31T23:18:19.357Z,101442.47
2022-07-31T23:21:25.077Z,101455.16
2022-07-31T23:24:30.602Z,101450.25
2022-07-31T23:27:37.373Z,101449.13
2022-07-31T23:30:43.340Z,101448.44
2022-07-31T23:33:49.458Z,101444.31
2022-07-31T23:36:54.592Z,101442.91
2022-07-31T23:39:59.774Z,101444.03
2022-07-31T23:43:06.588Z,101437.16
2022-07-31T23:46:13.048Z,101441.44
2022-07-31T23:49:22.000Z,101446.63
2022-07-31T23:52:27.610Z,101445.06
2022-07-31T23:55:32.907Z,101437.47
2022-07-31T23:58:44.933Z,101443.47
